createdAt,value
2022-08-21T00:00:12.227Z,21.85
2022-08-21T00:01:12.211Z,21.82
2022-08-21T00:02:12.271Z,21.80
2022-08-21T00:03:12.228Z,21.73
2022-08-21T00:04:14.666Z,21.77
2022-08-21T00:05:13.173Z,21.70
2022-08-21T00:06:13.947Z,21.69
2022-08-21T00:07:12.178Z,21.70
2022-08-21T00:08:12.225Z,21.75
2022-08-21T00:09:12.136Z,21.66
2022-08-21T00:10:12.107Z,21.66
2022-08-21T00:11:12.109Z,21.55
2022-08-21T00:12:12.159Z,21.58
2022-08-21T00:13:12.104Z,21.61
2022-08-21T00:14:12.079Z,21.54
2022-08-21T00:15:12.056Z,21.57
2022-08-21T00:16:12.043Z,21.67
2022-08-21T00:17:12.060Z,21.64
2022-08-21T00:18:12.026Z,21.55
2022-08-21T00:19:12.026Z,21.66
2022-08-21T00:20:12.008Z,21.67
2022-08-21T00:21:11.991Z,21.67
2022-08-21T00:22:12.007Z,21.72
2022-08-21T00:23:12.011Z,21.79
2022-08-21T00:24:12.006Z,21.88
2022-08-21T00:25:12.053Z,21.79
2022-08-21T00:26:11.932Z,21.85
2022-08-21T00:27:11.952Z,21.95
2022-08-21T00:28:11.972Z,21.93
2022-08-21T00:29:12.913Z,21.93
2022-08-21T00:30:11.911Z,21.91
2022-08-21T00:31:12.916Z,21.85
2022-08-21T00:32:11.903Z,21.83
2022-08-21T00:33:11.867Z,21.80
2022-08-21T00:34:11.850Z,21.73
2022-08-21T00:35:11.845Z,21.69
2022-08-21T00:36:11.837Z,21.70
2022-08-21T00:37:11.840Z,21.61
2022-08-21T00:38:11.798Z,21.67
2022-08-21T00:39:11.795Z,21.69
2022-08-21T00:40:11.841Z,21.58
2022-08-21T00:41:36.481Z,21.60
2022-08-21T00:42:12.772Z,21.57
2022-08-21T00:43:11.743Z,21.57
2022-08-21T00:44:11.755Z,21.69
2022-08-21T00:45:11.732Z,21.75
2022-08-21T00:46:11.716Z,21.80
2022-08-21T00:47:11.741Z,21.75
2022-08-21T00:48:11.699Z,21.80
2022-08-21T00:49:11.703Z,21.85
2022-08-21T00:50:11.969Z,21.88
2022-08-21T00:51:12.660Z,21.85
2022-08-21T00:52:11.723Z,21.79
2022-08-21T00:53:11.645Z,21.96
2022-08-21T00:54:18.646Z,21.98
2022-08-21T00:55:12.609Z,21.96
2022-08-21T00:56:11.616Z,22.00
2022-08-21T00:57:11.940Z,21.95
2022-08-21T00:58:11.603Z,21.92
2022-08-21T00:59:11.658Z,21.92
2022-08-21T01:00:11.609Z,21.91
2022-08-21T01:01:11.826Z,21.89
2022-08-21T01:02:11.559Z,21.80
2022-08-21T01:03:11.530Z,21.82
2022-08-21T01:04:11.517Z,21.79
2022-08-21T01:05:11.543Z,21.79
2022-08-21T01:06:11.552Z,21.76
2022-08-21T01:07:11.481Z,21.77
2022-08-21T01:08:11.466Z,21.89
2022-08-21T01:09:11.478Z,21.93
2022-08-21T01:10:12.020Z,22.02
2022-08-21T01:11:12.478Z,21.96
2022-08-21T01:12:12.194Z,21.89
2022-08-21T01:13:11.419Z,21.95
2022-08-21T01:14:11.410Z,21.98
2022-08-21T01:15:11.384Z,21.92
2022-08-21T01:16:11.425Z,21.77
2022-08-21T01:17:11.397Z,21.83
2022-08-21T01:18:11.358Z,21.88
2022-08-21T01:19:11.349Z,21.79
2022-08-21T01:20:11.323Z,21.79
2022-08-21T01:21:12.620Z,21.76
2022-08-21T01:22:11.320Z,21.76
2022-08-21T01:23:11.349Z,21.79
2022-08-21T01:24:11.288Z,21.76
2022-08-21T01:25:11.266Z,21.69
2022-08-21T01:26:11.273Z,21.75
2022-08-21T01:27:11.320Z,21.72
2022-08-21T01:28:11.278Z,21.83
2022-08-21T01:29:12.229Z,21.88
2022-08-21T01:30:11.220Z,21.82
2022-08-21T01:31:11.218Z,21.83
2022-08-21T01:32:11.196Z,21.80
2022-08-21T01:33:12.208Z,21.89
2022-08-21T01:34:11.194Z,21.76
2022-08-21T01:35:11.162Z,21.80
2022-08-21T01:36:11.190Z,21.70
2022-08-21T01:37:11.359Z,21.67
2022-08-21T01:38:11.151Z,21.58
2022-08-21T01:39:11.161Z,21.58
2022-08-21T01:40:11.182Z,21.55
2022-08-21T01:41:11.094Z,21.60
2022-08-21T01:42:11.197Z,21.62
2022-08-21T01:43:11.089Z,21.58
2022-08-21T01:44:11.097Z,21.61
2022-08-21T01:45:11.049Z,21.54
2022-08-21T01:46:11.047Z,21.50
2022-08-21T01:47:11.049Z,21.39
2022-08-21T01:48:11.126Z,21.39
2022-08-21T01:49:11.023Z,21.45
2022-08-21T01:50:11.442Z,21.29
2022-08-21T01:51:11.016Z,21.29
2022-08-21T01:52:11.044Z,21.29
2022-08-21T01:53:10.959Z,21.35
2022-08-21T01:54:10.972Z,21.25
2022-08-21T01:55:10.987Z,21.33
2022-08-21T01:56:12.107Z,21.42
2022-08-21T01:57:10.943Z,21.30
2022-08-21T01:58:10.972Z,21.32
2022-08-21T01:59:10.919Z,21.32
2022-08-21T02:00:10.929Z,21.32
2022-08-21T02:01:10.996Z,21.25
2022-08-21T02:02:10.860Z,21.42
2022-08-21T02:03:11.074Z,21.32
2022-08-21T02:04:10.850Z,21.33
2022-08-21T02:05:10.830Z,21.33
2022-08-21T02:06:10.845Z,21.39
2022-08-21T02:07:11.104Z,21.46
2022-08-21T02:08:10.795Z,21.32
2022-08-21T02:09:10.804Z,21.37
2022-08-21T02:10:10.766Z,21.40
2022-08-21T02:11:10.795Z,21.43
2022-08-21T02:12:10.763Z,21.55
2022-08-21T02:13:13.269Z,21.51
2022-08-21T02:14:10.739Z,21.45
2022-08-21T02:15:10.730Z,21.48
2022-08-21T02:16:10.905Z,21.45
2022-08-21T02:17:10.730Z,21.57
2022-08-21T02:18:10.716Z,21.48
2022-08-21T02:19:10.676Z,21.55
2022-08-21T02:20:10.660Z,21.43
2022-08-21T02:21:10.670Z,21.36
2022-08-21T02:22:10.677Z,21.29
2022-08-21T02:23:10.637Z,21.30
2022-08-21T02:24:10.969Z,21.27
2022-08-21T02:25:10.625Z,21.32
2022-08-21T02:26:10.657Z,21.32
2022-08-21T02:27:10.579Z,21.30
2022-08-21T02:28:10.583Z,21.35
2022-08-21T02:29:10.576Z,21.33
2022-08-21T02:30:10.544Z,21.25
2022-08-21T02:31:10.628Z,21.27
2022-08-21T02:32:10.526Z,21.42
2022-08-21T02:33:10.539Z,21.46
2022-08-21T02:34:10.529Z,21.43
2022-08-21T02:35:10.493Z,21.50
2022-08-21T02:36:10.477Z,21.43
2022-08-21T02:37:10.480Z,21.55
2022-08-21T02:38:12.998Z,21.48
2022-08-21T02:39:10.568Z,21.43
2022-08-21T02:40:10.541Z,21.35
2022-08-21T02:41:10.428Z,21.36
2022-08-21T02:42:10.422Z,21.36
2022-08-21T02:43:10.442Z,21.32
2022-08-21T02:44:10.408Z,21.35
2022-08-21T02:45:10.400Z,21.32
2022-08-21T02:46:10.380Z,21.39
2022-08-21T02:47:10.364Z,21.42
2022-08-21T02:48:10.345Z,21.40
2022-08-21T02:49:10.383Z,21.30
2022-08-21T02:50:10.345Z,21.29
2022-08-21T02:51:10.326Z,21.32
2022-08-21T02:52:11.234Z,21.36
2022-08-21T02:53:10.295Z,21.35
2022-08-21T02:54:10.287Z,21.33
2022-08-21T02:55:10.287Z,21.27
2022-08-21T02:56:10.297Z,21.18
2022-08-21T02:57:10.271Z,21.21
2022-08-21T02:58:10.367Z,21.18
2022-08-21T02:59:10.221Z,21.20
2022-08-21T03:00:10.218Z,21.33
2022-08-21T03:01:10.200Z,21.20
2022-08-21T03:02:10.210Z,21.30
2022-08-21T03:03:10.212Z,21.33
2022-08-21T03:04:10.183Z,21.30
2022-08-21T03:05:10.183Z,21.30
2022-08-21T03:06:10.168Z,21.30
2022-08-21T03:07:10.991Z,21.32
2022-08-21T03:08:10.122Z,21.32
2022-08-21T03:09:10.115Z,21.27
2022-08-21T03:10:10.120Z,21.30
2022-08-21T03:11:10.852Z,21.17
2022-08-21T03:12:10.125Z,21.27
2022-08-21T03:13:10.078Z,21.32
2022-08-21T03:14:10.090Z,21.30
2022-08-21T03:15:10.489Z,21.27
2022-08-21T03:16:10.243Z,21.27
2022-08-21T03:17:10.034Z,21.33
2022-08-21T03:18:10.040Z,21.33
2022-08-21T03:19:31.024Z,21.27
2022-08-21T03:20:09.995Z,21.29
2022-08-21T03:21:09.979Z,21.18
2022-08-21T03:22:10.008Z,21.03
2022-08-21T03:23:13.186Z,21.03
2022-08-21T03:24:09.937Z,21.07
2022-08-21T03:25:10.877Z,20.92
2022-08-21T03:26:09.954Z,20.85
2022-08-21T03:27:09.917Z,20.80
2022-08-21T03:28:10.264Z,20.82
2022-08-21T03:29:09.906Z,20.88
2022-08-21T03:30:19.756Z,20.90
2022-08-21T03:31:09.869Z,20.93
2022-08-21T03:32:09.854Z,20.85
2022-08-21T03:33:13.045Z,20.81
2022-08-21T03:34:10.881Z,20.81
2022-08-21T03:35:09.816Z,20.82
2022-08-21T03:36:09.801Z,20.90
2022-08-21T03:37:09.816Z,20.81
2022-08-21T03:38:09.780Z,20.81
2022-08-21T03:39:09.779Z,20.72
2022-08-21T03:40:09.909Z,20.69
2022-08-21T03:41:09.748Z,20.75
2022-08-21T03:42:09.764Z,20.81
2022-08-21T03:43:09.726Z,20.72
2022-08-21T03:44:09.726Z,20.69
2022-08-21T03:45:09.740Z,20.63
2022-08-21T03:46:09.693Z,20.56
2022-08-21T03:47:09.681Z,20.48
2022-08-21T03:48:09.687Z,20.43
2022-08-21T03:49:09.729Z,20.44
2022-08-21T03:50:09.644Z,20.36
2022-08-21T03:51:09.635Z,20.32
2022-08-21T03:52:09.641Z,20.51
2022-08-21T03:53:17.085Z,20.47
2022-08-21T03:54:10.601Z,20.51
2022-08-21T03:55:09.649Z,20.52
2022-08-21T03:56:09.583Z,20.50
2022-08-21T03:57:09.613Z,20.60
2022-08-21T03:58:16.996Z,20.52
2022-08-21T03:59:10.543Z,20.55
2022-08-21T04:00:09.539Z,20.55
2022-08-21T04:01:09.547Z,20.63
2022-08-21T04:02:10.290Z,20.62
2022-08-21T04:03:09.506Z,20.69
2022-08-21T04:04:09.493Z,20.62
2022-08-21T04:05:09.501Z,20.69
2022-08-21T04:06:09.799Z,20.72
2022-08-21T04:07:09.459Z,20.69
2022-08-21T04:08:09.511Z,20.74
2022-08-21T04:09:09.432Z,20.69
2022-08-21T04:10:09.423Z,20.81
2022-08-21T04:11:09.439Z,20.72
2022-08-21T04:12:09.401Z,20.74
2022-08-21T04:13:09.394Z,20.69
2022-08-21T04:14:09.375Z,20.62
2022-08-21T04:15:09.388Z,20.67
2022-08-21T04:16:09.359Z,20.65
2022-08-21T04:17:09.352Z,20.70
2022-08-21T04:18:09.329Z,20.75
2022-08-21T04:19:09.321Z,20.63
2022-08-21T04:20:09.323Z,20.63
2022-08-21T04:21:10.818Z,20.60
2022-08-21T04:22:09.301Z,20.55
2022-08-21T04:23:09.272Z,20.58
2022-08-21T04:24:09.263Z,20.50
2022-08-21T04:25:10.557Z,20.47
2022-08-21T04:26:09.241Z,20.47
2022-08-21T04:27:09.230Z,20.52
2022-08-21T04:28:09.227Z,20.48
2022-08-21T04:29:09.210Z,20.63
2022-08-21T04:30:09.256Z,20.56
2022-08-21T04:31:09.211Z,20.48
2022-08-21T04:32:09.199Z,20.51
2022-08-21T04:33:09.200Z,20.58
2022-08-21T04:34:09.153Z,20.69
2022-08-21T04:35:09.170Z,20.69
2022-08-21T04:36:09.248Z,20.74
2022-08-21T04:37:09.118Z,20.74
2022-08-21T04:38:09.422Z,20.74
2022-08-21T04:39:10.182Z,20.78
2022-08-21T04:40:09.180Z,20.78
2022-08-21T04:41:09.074Z,20.84
2022-08-21T04:42:09.243Z,20.80
2022-08-21T04:43:09.057Z,20.85
2022-08-21T04:44:09.055Z,20.87
2022-08-21T04:45:09.056Z,20.92
2022-08-21T04:46:09.017Z,20.96
2022-08-21T04:47:09.007Z,20.80
2022-08-21T04:48:13.735Z,20.92
2022-08-21T04:49:10.001Z,20.81
2022-08-21T04:50:08.989Z,20.97
2022-08-21T04:51:09.011Z,20.97
2022-08-21T04:52:08.949Z,20.96
2022-08-21T04:53:08.943Z,20.78
2022-08-21T04:54:08.951Z,20.80
2022-08-21T04:55:09.779Z,20.90
2022-08-21T04:56:08.902Z,20.93
2022-08-21T04:57:08.892Z,20.93
2022-08-21T04:58:08.897Z,20.97
2022-08-21T04:59:08.889Z,20.97
2022-08-21T05:00:13.651Z,20.90
2022-08-21T05:01:09.877Z,21.00
2022-08-21T05:02:08.839Z,20.90
2022-08-21T05:03:08.847Z,20.95
2022-08-21T05:04:08.814Z,20.88
2022-08-21T05:05:08.805Z,20.95
2022-08-21T05:06:08.795Z,20.92
2022-08-21T05:07:08.781Z,21.03
2022-08-21T05:08:08.789Z,21.03
2022-08-21T05:09:08.779Z,21.00
2022-08-21T05:10:08.749Z,20.99
2022-08-21T05:11:08.737Z,21.03
2022-08-21T05:12:08.723Z,21.00
2022-08-21T05:13:08.714Z,21.05
2022-08-21T05:14:08.721Z,20.90
2022-08-21T05:15:08.692Z,20.88
2022-08-21T05:16:09.287Z,20.90
2022-08-21T05:17:08.689Z,20.93
2022-08-21T05:18:08.841Z,20.92
2022-08-21T05:19:08.675Z,20.93
2022-08-21T05:20:08.643Z,20.95
2022-08-21T05:21:08.624Z,20.92
2022-08-21T05:22:08.612Z,20.90
2022-08-21T05:23:08.608Z,20.93
2022-08-21T05:24:08.604Z,20.96
2022-08-21T05:25:10.438Z,20.97
2022-08-21T05:26:08.573Z,20.99
2022-08-21T05:27:09.556Z,21.05
2022-08-21T05:28:08.543Z,21.11
2022-08-21T05:29:12.867Z,21.07
2022-08-21T05:30:08.614Z,21.11
2022-08-21T05:31:08.511Z,21.06
2022-08-21T05:32:08.499Z,21.06
2022-08-21T05:33:08.490Z,21.18
2022-08-21T05:34:08.499Z,21.22
2022-08-21T05:35:09.248Z,21.21
2022-08-21T05:36:08.454Z,21.18
2022-08-21T05:37:08.444Z,21.12
2022-08-21T05:38:16.630Z,21.03
2022-08-21T05:39:09.489Z,21.11
2022-08-21T05:40:21.964Z,21.11
2022-08-21T05:41:09.466Z,21.18
2022-08-21T05:42:08.398Z,21.20
2022-08-21T05:43:08.386Z,21.14
2022-08-21T05:44:10.267Z,21.21
2022-08-21T05:45:08.354Z,21.21
2022-08-21T05:46:08.363Z,21.22
2022-08-21T05:47:08.335Z,21.35
2022-08-21T05:48:08.352Z,21.32
2022-08-21T05:49:08.329Z,21.30
2022-08-21T05:50:08.302Z,21.30
2022-08-21T05:51:08.287Z,21.30
2022-08-21T05:52:08.299Z,21.46
2022-08-21T05:53:08.404Z,21.25
2022-08-21T05:54:08.686Z,21.35
2022-08-21T05:55:08.243Z,21.36
2022-08-21T05:56:08.235Z,21.42
2022-08-21T05:57:08.219Z,21.35
2022-08-21T05:58:08.212Z,21.45
2022-08-21T05:59:08.660Z,21.46
2022-08-21T06:00:08.189Z,21.48
2022-08-21T06:01:08.216Z,21.54
2022-08-21T06:02:08.171Z,21.54
2022-08-21T06:03:08.154Z,21.58
2022-08-21T06:04:08.174Z,21.55
2022-08-21T06:05:08.159Z,21.55
2022-08-21T06:06:08.122Z,21.58
2022-08-21T06:07:08.130Z,21.57
2022-08-21T06:08:08.101Z,21.54
2022-08-21T06:09:08.333Z,21.58
2022-08-21T06:10:08.078Z,21.64
2022-08-21T06:11:08.085Z,21.69
2022-08-21T06:12:08.052Z,21.76
2022-08-21T06:13:08.042Z,21.67
2022-08-21T06:14:08.049Z,21.72
2022-08-21T06:15:08.103Z,21.67
2022-08-21T06:16:08.009Z,21.80
2022-08-21T06:17:08.009Z,21.82
2022-08-21T06:18:08.162Z,21.80
2022-08-21T06:19:09.306Z,21.80
2022-08-21T06:20:08.405Z,21.92
2022-08-21T06:21:07.958Z,21.96
2022-08-21T06:22:07.949Z,21.95
2022-08-21T06:23:07.932Z,21.99
2022-08-21T06:24:08.338Z,21.98
2022-08-21T06:25:07.979Z,22.06
2022-08-21T06:26:08.133Z,22.06
2022-08-21T06:27:07.887Z,21.96
2022-08-21T06:28:07.872Z,22.06
2022-08-21T06:29:07.898Z,22.10
2022-08-21T06:30:07.856Z,22.13
2022-08-21T06:31:07.862Z,22.15
2022-08-21T06:32:07.834Z,22.13
2022-08-21T06:33:07.819Z,22.32
2022-08-21T06:34:07.809Z,22.23
2022-08-21T06:35:07.825Z,22.29
2022-08-21T06:36:07.787Z,22.26
2022-08-21T06:37:08.311Z,22.30
2022-08-21T06:38:07.764Z,22.43
2022-08-21T06:39:12.349Z,22.45
2022-08-21T06:40:12.598Z,22.47
2022-08-21T06:41:07.725Z,22.47
2022-08-21T06:42:10.574Z,22.44
2022-08-21T06:43:07.751Z,22.50
2022-08-21T06:44:07.697Z,22.54
2022-08-21T06:45:07.703Z,22.65
2022-08-21T06:46:07.677Z,22.73
2022-08-21T06:47:07.665Z,22.69
2022-08-21T06:48:07.653Z,22.75
2022-08-21T06:49:07.638Z,22.72
2022-08-21T06:50:08.670Z,22.76
2022-08-21T06:51:07.625Z,22.87
2022-08-21T06:52:07.608Z,22.93
2022-08-21T06:53:07.632Z,23.05
2022-08-21T06:54:08.327Z,23.15
2022-08-21T06:55:07.602Z,23.06
2022-08-21T06:56:07.574Z,23.10
2022-08-21T06:57:07.550Z,23.17
2022-08-21T06:58:07.706Z,23.23
2022-08-21T06:59:07.546Z,23.28
2022-08-21T07:00:07.540Z,23.32
2022-08-21T07:01:07.552Z,23.43
2022-08-21T07:02:07.493Z,23.56
2022-08-21T07:03:07.482Z,23.54
2022-08-21T07:04:07.476Z,23.55
2022-08-21T07:05:17.623Z,23.63
2022-08-21T07:06:08.446Z,23.80
2022-08-21T07:07:07.435Z,23.96
2022-08-21T07:08:07.425Z,24.01
2022-08-21T07:09:07.412Z,24.23
2022-08-21T07:10:07.431Z,24.30
2022-08-21T07:11:08.285Z,24.45
2022-08-21T07:12:07.389Z,24.51
2022-08-21T07:13:07.764Z,24.74
2022-08-21T07:14:07.357Z,24.85
2022-08-21T07:15:07.359Z,24.95
2022-08-21T07:16:07.353Z,25.08
2022-08-21T07:17:07.340Z,25.13
2022-08-21T07:18:07.316Z,25.16
2022-08-21T07:19:07.326Z,25.31
2022-08-21T07:20:07.293Z,25.35
2022-08-21T07:21:07.281Z,25.14
2022-08-21T07:22:07.272Z,25.13
2022-08-21T07:23:07.259Z,25.13
2022-08-21T07:24:07.265Z,25.16
2022-08-21T07:25:07.273Z,25.18
2022-08-21T07:26:07.276Z,25.23
2022-08-21T07:27:10.117Z,25.36
2022-08-21T07:28:07.789Z,25.48
2022-08-21T07:29:07.192Z,25.36
2022-08-21T07:30:07.188Z,25.32
2022-08-21T07:31:07.194Z,25.17
2022-08-21T07:32:07.171Z,25.11
2022-08-21T07:33:07.171Z,25.10
2022-08-21T07:34:07.162Z,24.92
2022-08-21T07:35:07.179Z,25.03
2022-08-21T07:36:07.126Z,25.01
2022-08-21T07:37:10.241Z,25.03
2022-08-21T07:38:07.094Z,25.14
2022-08-21T07:39:07.116Z,24.92
2022-08-21T07:40:07.153Z,24.86
2022-08-21T07:41:07.064Z,24.89
2022-08-21T07:42:08.585Z,25.07
2022-08-21T07:43:07.040Z,25.18
2022-08-21T07:44:07.035Z,25.28
2022-08-21T07:45:07.023Z,25.21
2022-08-21T07:46:07.032Z,25.31
2022-08-21T07:47:07.029Z,25.43
2022-08-21T07:48:06.988Z,25.46
2022-08-21T07:49:07.359Z,25.59
2022-08-21T07:50:06.972Z,25.85
2022-08-21T07:51:06.965Z,26.05
2022-08-21T07:52:06.971Z,26.41
2022-08-21T07:53:06.933Z,26.53
2022-08-21T07:54:06.924Z,26.33
2022-08-21T07:55:07.044Z,26.44
2022-08-21T07:56:06.918Z,26.45
2022-08-21T07:57:06.889Z,26.66
2022-08-21T07:58:06.876Z,26.74
2022-08-21T07:59:06.866Z,26.88
2022-08-21T08:00:06.928Z,26.95
2022-08-21T08:01:06.899Z,27.07
2022-08-21T08:02:06.850Z,27.20
2022-08-21T08:03:06.821Z,27.12
2022-08-21T08:04:06.815Z,27.25
2022-08-21T08:05:06.820Z,27.39
2022-08-21T08:06:07.376Z,27.37
2022-08-21T08:07:06.779Z,27.58
2022-08-21T08:08:06.766Z,27.64
2022-08-21T08:09:06.756Z,27.78
2022-08-21T08:10:06.768Z,28.19
2022-08-21T08:11:06.760Z,28.54
2022-08-21T08:12:06.726Z,28.75
2022-08-21T08:13:06.708Z,29.01
2022-08-21T08:14:06.697Z,29.45
2022-08-21T08:15:06.716Z,29.63
2022-08-21T08:16:06.687Z,29.75
2022-08-21T08:17:06.907Z,29.61
2022-08-21T08:18:06.660Z,29.53
2022-08-21T08:19:06.642Z,29.63
2022-08-21T08:20:06.690Z,29.81
2022-08-21T08:21:06.641Z,29.82
2022-08-21T08:22:06.618Z,29.71
2022-08-21T08:23:07.318Z,29.94
2022-08-21T08:24:19.340Z,30.10
2022-08-21T08:25:09.599Z,30.70
2022-08-21T08:26:06.578Z,31.28
2022-08-21T08:27:06.556Z,31.61
2022-08-21T08:28:16.515Z,31.90
2022-08-21T08:29:07.559Z,32.18
2022-08-21T08:30:06.535Z,32.63
2022-08-21T08:31:06.537Z,32.86
2022-08-21T08:32:06.643Z,32.80
2022-08-21T08:33:06.493Z,32.96
2022-08-21T08:34:06.483Z,33.24
2022-08-21T08:35:06.501Z,33.17
2022-08-21T08:36:08.183Z,33.05
2022-08-21T08:37:06.447Z,33.32
2022-08-21T08:38:06.737Z,33.50
2022-08-21T08:39:06.440Z,33.62
2022-08-21T08:40:06.521Z,33.55
2022-08-21T08:41:06.442Z,33.59
2022-08-21T08:42:33.594Z,33.45
2022-08-21T08:43:07.385Z,33.12
2022-08-21T08:44:06.397Z,32.82
2022-08-21T08:45:06.365Z,32.75
2022-08-21T08:46:06.352Z,32.45
2022-08-21T08:47:06.362Z,32.15
2022-08-21T08:48:06.356Z,31.43
2022-08-21T08:49:07.863Z,30.83
2022-08-21T08:50:06.311Z,30.37
2022-08-21T08:51:06.304Z,30.09
2022-08-21T08:52:06.302Z,29.81
2022-08-21T08:53:06.308Z,29.72
2022-08-21T08:54:06.269Z,29.45
2022-08-21T08:55:06.389Z,29.13
2022-08-21T08:56:06.247Z,29.16
2022-08-21T08:57:06.263Z,28.91
2022-08-21T08:58:06.240Z,28.86
2022-08-21T08:59:06.227Z,28.96
2022-08-21T09:00:06.879Z,28.84
2022-08-21T09:01:06.262Z,28.72
2022-08-21T09:02:06.185Z,28.49
2022-08-21T09:03:06.185Z,28.41
2022-08-21T09:04:06.163Z,28.25
2022-08-21T09:05:06.179Z,28.19
2022-08-21T09:06:06.253Z,27.98
2022-08-21T09:07:06.147Z,27.82
2022-08-21T09:08:06.121Z,27.70
2022-08-21T09:09:06.128Z,27.40
2022-08-21T09:10:06.097Z,27.45
2022-08-21T09:11:06.085Z,27.51
2022-08-21T09:12:06.280Z,27.52
2022-08-21T09:13:06.079Z,27.44
2022-08-21T09:14:06.057Z,27.51
2022-08-21T09:15:06.051Z,27.52
2022-08-21T09:16:06.035Z,27.39
2022-08-21T09:17:06.042Z,27.32
2022-08-21T09:18:07.814Z,27.37
2022-08-21T09:19:06.009Z,27.40
2022-08-21T09:20:06.012Z,27.27
2022-08-21T09:21:05.976Z,27.08
2022-08-21T09:22:05.968Z,27.05
2022-08-21T09:23:05.970Z,27.02
2022-08-21T09:24:05.945Z,27.15
2022-08-21T09:25:05.954Z,27.00
2022-08-21T09:26:05.925Z,27.08
2022-08-21T09:27:07.158Z,27.10
2022-08-21T09:28:05.897Z,27.18
2022-08-21T09:29:05.889Z,26.97
2022-08-21T09:30:05.926Z,26.80
2022-08-21T09:31:17.400Z,26.59
2022-08-21T09:32:05.856Z,26.80
2022-08-21T09:33:05.851Z,26.85
2022-08-21T09:34:05.836Z,26.84
2022-08-21T09:35:05.842Z,26.83
2022-08-21T09:36:05.816Z,26.78
2022-08-21T09:37:05.800Z,26.53
2022-08-21T09:38:05.791Z,26.29
2022-08-21T09:39:05.777Z,26.28
2022-08-21T09:40:05.839Z,26.16
2022-08-21T09:41:05.755Z,26.10
2022-08-21T09:42:05.768Z,26.09
2022-08-21T09:43:05.732Z,26.18
2022-08-21T09:44:05.720Z,26.15
2022-08-21T09:45:05.732Z,26.25
2022-08-21T09:46:05.723Z,26.31
2022-08-21T09:47:05.712Z,26.31
2022-08-21T09:48:05.675Z,26.23
2022-08-21T09:49:06.000Z,26.29
2022-08-21T09:50:05.697Z,26.47
2022-08-21T09:51:05.652Z,26.68
2022-08-21T09:52:05.640Z,26.92
2022-08-21T09:53:05.620Z,27.07
2022-08-21T09:54:05.616Z,27.39
2022-08-21T09:55:05.842Z,27.48
2022-08-21T09:56:05.634Z,27.63
2022-08-21T09:57:05.578Z,27.58
2022-08-21T09:58:05.575Z,27.75
2022-08-21T09:59:07.446Z,28.11
2022-08-21T10:00:05.546Z,28.29
2022-08-21T10:01:05.575Z,28.47
2022-08-21T10:02:05.526Z,28.63
2022-08-21T10:03:05.511Z,28.75
2022-08-21T10:04:05.521Z,28.84
2022-08-21T10:05:05.491Z,28.97
2022-08-21T10:06:05.491Z,29.13
2022-08-21T10:07:05.468Z,29.39
2022-08-21T10:08:05.459Z,29.51
2022-08-21T10:09:05.476Z,29.69
2022-08-21T10:10:05.496Z,29.75
2022-08-21T10:11:05.422Z,29.78
2022-08-21T10:12:05.412Z,29.97
2022-08-21T10:13:06.401Z,29.97
2022-08-21T10:14:05.491Z,29.61
2022-08-21T10:15:08.616Z,29.51
2022-08-21T10:16:05.389Z,29.65
2022-08-21T10:17:05.358Z,29.51
2022-08-21T10:18:05.348Z,29.50
2022-08-21T10:19:05.339Z,29.44
2022-08-21T10:20:05.349Z,29.51
2022-08-21T10:21:08.144Z,29.53
2022-08-21T10:22:05.306Z,29.44
2022-08-21T10:23:05.299Z,29.27
2022-08-21T10:24:05.316Z,29.29
2022-08-21T10:25:05.281Z,29.49
2022-08-21T10:26:13.396Z,29.47
2022-08-21T10:27:06.252Z,29.59
2022-08-21T10:28:06.605Z,29.69
2022-08-21T10:29:05.266Z,29.81
2022-08-21T10:30:05.223Z,29.82
2022-08-21T10:31:05.382Z,29.91
2022-08-21T10:32:05.199Z,30.08
2022-08-21T10:33:06.213Z,30.19
2022-08-21T10:34:05.193Z,30.19
2022-08-21T10:35:05.174Z,30.16
2022-08-21T10:36:05.157Z,30.30
2022-08-21T10:37:10.822Z,30.18
2022-08-21T10:38:06.155Z,30.31
2022-08-21T10:39:26.080Z,30.21
2022-08-21T10:40:06.195Z,30.18
2022-08-21T10:41:05.106Z,30.27
2022-08-21T10:42:05.113Z,30.10
2022-08-21T10:43:05.083Z,30.05
2022-08-21T10:44:05.219Z,30.32
2022-08-21T10:45:05.085Z,30.80
2022-08-21T10:46:05.061Z,31.21
2022-08-21T10:47:05.043Z,31.34
2022-08-21T10:48:05.054Z,31.42
2022-08-21T10:49:05.022Z,31.51
2022-08-21T10:50:05.006Z,32.01
2022-08-21T10:51:05.071Z,32.31
2022-08-21T10:52:05.032Z,32.63
2022-08-21T10:53:04.993Z,32.78
2022-08-21T10:54:04.964Z,32.89
2022-08-21T10:55:04.955Z,32.63
2022-08-21T10:56:04.947Z,32.12
2022-08-21T10:57:04.961Z,31.93
2022-08-21T10:58:05.000Z,31.93
2022-08-21T10:59:04.911Z,31.80
2022-08-21T11:00:04.904Z,31.73
2022-08-21T11:01:04.984Z,31.46
2022-08-21T11:02:04.904Z,31.31
2022-08-21T11:03:05.160Z,31.31
2022-08-21T11:04:04.887Z,31.37
2022-08-21T11:05:04.869Z,31.59
2022-08-21T11:06:04.836Z,31.96
2022-08-21T11:07:05.464Z,32.21
2022-08-21T11:08:05.830Z,32.52
2022-08-21T11:09:04.806Z,32.86
2022-08-21T11:10:05.105Z,32.93
2022-08-21T11:11:04.907Z,32.90
2022-08-21T11:12:11.605Z,32.95
2022-08-21T11:13:05.783Z,33.53
2022-08-21T11:14:04.747Z,33.79
2022-08-21T11:15:04.749Z,33.99
2022-08-21T11:16:04.732Z,34.23
2022-08-21T11:17:04.744Z,34.52
2022-08-21T11:18:04.707Z,34.70
2022-08-21T11:19:04.704Z,34.50
2022-08-21T11:20:04.688Z,33.46
2022-08-21T11:21:04.698Z,32.80
2022-08-21T11:22:04.669Z,32.12
2022-08-21T11:23:05.028Z,31.85
2022-08-21T11:24:05.938Z,31.78
2022-08-21T11:25:04.671Z,31.78
2022-08-21T11:26:04.650Z,32.03
2022-08-21T11:27:04.620Z,32.51
2022-08-21T11:28:04.604Z,32.82
2022-08-21T11:29:04.595Z,33.02
2022-08-21T11:30:04.581Z,32.87
2022-08-21T11:31:04.592Z,32.80
2022-08-21T11:32:04.569Z,32.01
2022-08-21T11:33:04.553Z,31.84
2022-08-21T11:34:04.577Z,32.12
2022-08-21T11:35:04.540Z,32.04
2022-08-21T11:36:04.543Z,32.15
2022-08-21T11:37:04.814Z,31.56
2022-08-21T11:38:04.514Z,31.52
2022-08-21T11:39:04.495Z,31.81
2022-08-21T11:40:04.511Z,31.76
2022-08-21T11:41:04.807Z,31.84
2022-08-21T11:42:08.732Z,31.96
2022-08-21T11:43:04.497Z,32.04
2022-08-21T11:44:04.437Z,32.46
2022-08-21T11:45:04.435Z,32.67
2022-08-21T11:46:04.438Z,32.95
2022-08-21T11:47:04.429Z,33.17
2022-08-21T11:48:04.402Z,33.32
2022-08-21T11:49:04.395Z,33.62
2022-08-21T11:50:04.408Z,33.76
2022-08-21T11:51:04.373Z,33.90
2022-08-21T11:52:04.464Z,34.18
2022-08-21T11:53:04.382Z,33.57
2022-08-21T11:54:07.445Z,33.40
2022-08-21T11:55:04.332Z,33.39
2022-08-21T11:56:04.585Z,33.45
2022-08-21T11:57:04.312Z,33.57
2022-08-21T11:58:04.327Z,33.77
2022-08-21T11:59:04.293Z,34.21
2022-08-21T12:00:04.299Z,34.52
2022-08-21T12:01:04.278Z,34.66
2022-08-21T12:02:04.362Z,34.61
2022-08-21T12:03:04.319Z,34.13
2022-08-21T12:04:04.252Z,33.83
2022-08-21T12:05:08.495Z,33.47
2022-08-21T12:06:04.229Z,33.32
2022-08-21T12:07:04.231Z,33.19
2022-08-21T12:08:04.228Z,32.96
2022-08-21T12:09:04.328Z,32.95
2022-08-21T12:10:04.188Z,33.11
2022-08-21T12:11:04.183Z,33.12
2022-08-21T12:12:04.186Z,33.12
2022-08-21T12:13:04.309Z,33.27
2022-08-21T12:14:04.200Z,33.24
2022-08-21T12:15:04.148Z,33.53
2022-08-21T12:16:04.143Z,33.76
2022-08-21T12:17:04.121Z,33.96
2022-08-21T12:18:04.105Z,33.96
2022-08-21T12:19:04.116Z,34.11
2022-08-21T12:20:05.012Z,34.33
2022-08-21T12:21:04.082Z,34.43
2022-08-21T12:22:04.121Z,34.03
2022-08-21T12:23:04.058Z,33.83
2022-08-21T12:24:04.087Z,33.74
2022-08-21T12:25:04.057Z,33.87
2022-08-21T12:26:04.030Z,33.92
2022-08-21T12:27:04.023Z,34.10
2022-08-21T12:28:04.986Z,34.18
2022-08-21T12:29:04.026Z,34.32
2022-08-21T12:30:04.001Z,34.16
2022-08-21T12:31:03.984Z,33.79
2022-08-21T12:32:03.999Z,33.64
2022-08-21T12:33:04.009Z,33.22
2022-08-21T12:34:03.963Z,32.83
2022-08-21T12:35:03.952Z,32.85
2022-08-21T12:36:03.933Z,32.58
2022-08-21T12:37:03.953Z,32.26
2022-08-21T12:38:03.911Z,31.36
2022-08-21T12:39:03.908Z,30.81
2022-08-21T12:40:03.994Z,30.87
2022-08-21T12:41:03.891Z,30.94
2022-08-21T12:42:03.922Z,30.99
2022-08-21T12:43:04.512Z,30.90
2022-08-21T12:44:03.860Z,30.97
2022-08-21T12:45:03.853Z,31.15
2022-08-21T12:46:03.860Z,31.17
2022-08-21T12:47:03.834Z,31.29
2022-08-21T12:48:03.824Z,30.97
2022-08-21T12:49:03.841Z,30.90
2022-08-21T12:50:03.919Z,30.85
2022-08-21T12:51:03.798Z,30.97
2022-08-21T12:52:03.785Z,31.15